Time;durP1;ratioP1;P1;durP2;ratioP2;P2;SDS_P1;SDS_P2;PMS_P1;PMS_P2;Temp;Humidity;BMP_temperature;BMP_pressure;BME280_temperature;BME280_humidity;BME280_pressure;Samples;Min_cycle;Max_cycle;Signal;HPM_P1;HPM_P2
2023/08/02 00:00:35;;;;;;;9.67;4.83;;;15.30;99.90;;;;;;4962111;29;20485;-61
2023/08/02 00:03:02;;;;;;;8.17;4.00;;;15.30;99.90;;;;;;4962052;29;20870;-61
2023/08/02 00:05:29;;;;;;;8.47;4.10;;;15.30;99.90;;;;;;4961477;29;20462;-62
2023/08/02 00:07:57;;;;;;;9.97;4.53;;;15.30;99.90;;;;;;4961699;29;20463;-62
2023/08/02 00:10:25;;;;;;;7.73;4.20;;;15.30;99.90;;;;;;4961341;28;20557;-61
2023/08/02 00:12:53;;;;;;;9.60;3.60;;;15.30;99.90;;;;;;4961764;29;20881;-62
2023/08/02 00:15:20;;;;;;;7.37;4.50;;;15.40;99.90;;;;;;4961900;29;20839;-62
2023/08/02 00:17:48;;;;;;;8.37;4.40;;;15.40;51.50;;;;;;4961464;28;20487;-61
2023/08/02 00:20:15;;;;;;;7.30;3.90;;;15.40;1.00;;;;;;4961572;29;20458;-61
2023/08/02 00:22:42;;;;;;;8.20;4.30;;;15.30;1.00;;;;;;4961497;29;20545;-62
2023/08/02 00:25:10;;;;;;;7.47;4.27;;;15.30;1.00;;;;;;4961683;29;20775;-62
2023/08/02 00:27:38;;;;;;;6.70;4.13;;;15.30;1.00;;;;;;4961704;29;20455;-62
2023/08/02 00:30:06;;;;;;;7.23;3.40;;;15.30;1.00;;;;;;4961655;29;20463;-62
2023/08/02 00:32:33;;;;;;;4.87;3.60;;;15.20;1.00;;;;;;4961469;29;20463;-62
2023/08/02 00:35:01;;;;;;;5.47;3.90;;;15.20;1.00;;;;;;4961330;28;20470;-61
2023/08/02 00:37:28;;;;;;;9.67;4.10;;;15.20;1.00;;;;;;4960985;28;20468;-62
2023/08/02 00:39:55;;;;;;;6.83;3.67;;;15.20;1.00;;;;;;4960912;28;20462;-62
2023/08/02 00:42:22;;;;;;;9.03;5.40;;;15.10;1.00;;;;;;4961204;29;20825;-61
2023/08/02 00:44:51;;;;;;;7.67;4.27;;;15.10;1.00;;;;;;4961171;29;20459;-61
2023/08/02 00:47:18;;;;;;;8.83;4.13;;;15.00;1.00;;;;;;4961284;29;20463;-62
2023/08/02 00:49:46;;;;;;;8.43;4.40;;;15.00;65.50;;;;;;4960980;29;20467;-61
2023/08/02 00:52:14;;;;;;;8.03;3.80;;;15.00;99.90;;;;;;4960880;29;20466;-61
2023/08/02 00:54:42;;;;;;;12.20;4.00;;;15.00;99.90;;;;;;4961130;28;20470;-62
2023/08/02 00:57:10;;;;;;;10.17;4.07;;;15.10;99.90;;;;;;4960721;28;20437;-61
2023/08/02 00:59:38;;;;;;;9.00;4.13;;;15.10;99.90;;;;;;4961417;28;20467;-61
2023/08/02 01:02:07;;;;;;;6.90;3.40;;;15.10;99.90;;;;;;4960985;28;20550;-61
2023/08/02 01:04:35;;;;;;;7.40;4.23;;;15.10;99.90;;;;;;4960245;28;20463;-62
2023/08/02 01:07:12;;;;;;;7.87;3.60;;;15.00;99.90;;;;;;4960162;29;20463;-62
2023/08/02 01:09:44;;;;;;;7.20;3.97;;;15.00;99.90;;;;;;4961141;28;20454;-62
2023/08/02 01:12:12;;;;;;;6.20;3.80;;;14.90;99.90;;;;;;4960511;28;20471;-62
2023/08/02 01:14:42;;;;;;;6.07;3.40;;;14.90;99.90;;;;;;4960690;29;20911;-62
2023/08/02 01:17:14;;;;;;;6.43;3.40;;;14.80;1.00;;;;;;4960778;29;20830;-62
2023/08/02 01:19:42;;;;;;;8.33;3.77;;;14.80;1.00;;;;;;4960196;28;20498;-62
2023/08/02 01:22:11;;;;;;;8.53;4.27;;;14.80;1.00;;;;;;4960273;28;20967;-61
2023/08/02 01:24:38;;;;;;;6.10;3.83;;;14.70;99.90;;;;;;4960415;29;20463;-62
2023/08/02 01:27:09;;;;;;;9.03;4.07;;;14.70;99.90;;;;;;4960121;29;20463;-61
2023/08/02 01:29:40;;;;;;;10.80;4.50;;;14.70;1.00;;;;;;4960635;29;20469;-61
2023/08/02 01:32:10;;;;;;;7.23;4.13;;;14.80;59.80;;;;;;4960207;29;20462;-62
2023/08/02 01:34:38;;;;;;;9.17;3.60;;;14.80;99.90;;;;;;4961490;28;20462;-61
2023/08/02 01:37:05;;;;;;;6.30;3.83;;;14.80;99.90;;;;;;4979627;28;20468;-62
2023/08/02 01:39:34;;;;;;;6.63;3.60;;;14.90;99.90;;;;;;4979438;28;20500;-62
2023/08/02 01:42:01;;;;;;;5.53;4.00;;;14.90;99.90;;;;;;4979161;28;20469;-61
2023/08/02 01:44:28;;;;;;;7.10;3.93;;;14.90;1.00;;;;;;4979383;28;20837;-62
2023/08/02 01:46:55;;;;;;;6.17;4.30;;;14.90;1.00;;;;;;4979427;28;20556;-61
2023/08/02 01:49:23;;;;;;;7.37;4.07;;;14.90;1.00;;;;;;4979734;28;20462;-62
2023/08/02 01:51:50;;;;;;;4.93;3.50;;;14.90;99.90;;;;;;4979227;28;20930;-61
2023/08/02 01:54:17;;;;;;;5.87;4.00;;;14.90;99.90;;;;;;4979010;28;20465;-62
2023/08/02 01:56:45;;;;;;;5.57;4.60;;;14.80;99.90;;;;;;4979256;28;20791;-61
2023/08/02 01:59:13;;;;;;;6.50;4.20;;;14.80;1.00;;;;;;4979470;28;20572;-62
2023/08/02 02:01:40;;;;;;;6.60;3.50;;;14.80;1.00;;;;;;4978961;28;20516;-61
2023/08/02 02:04:08;;;;;;;10.40;3.97;;;14.80;1.00;;;;;;4978894;28;20924;-61
2023/08/02 02:06:35;;;;;;;5.80;3.27;;;14.80;1.00;;;;;;4978845;28;20466;-61
2023/08/02 02:09:03;;;;;;;6.90;4.37;;;14.80;48.90;;;;;;4979211;28;20876;-62
2023/08/02 02:11:30;;;;;;;7.80;3.73;;;14.80;99.90;;;;;;4979040;28;20767;-62
2023/08/02 02:13:58;;;;;;;5.10;3.87;;;14.90;99.90;;;;;;4978598;28;20461;-61
2023/08/02 02:16:26;;;;;;;8.77;4.00;;;14.90;1.00;;;;;;4978481;28;20502;-61
2023/08/02 02:18:53;;;;;;;7.10;4.50;;;15.00;1.00;;;;;;4978785;28;20780;-62
2023/08/02 02:21:20;;;;;;;7.80;4.80;;;15.00;99.90;;;;;;4978167;28;20557;-62
2023/08/02 02:23:47;;;;;;;5.93;3.70;;;15.10;1.00;;;;;;4978556;28;20493;-61
2023/08/02 02:26:14;;;;;;;7.50;4.73;;;15.10;99.90;;;;;;4978674;28;20552;-61
2023/08/02 02:28:41;;;;;;;4.97;3.23;;;15.10;99.90;;;;;;4978723;28;20565;-61
2023/08/02 02:31:10;;;;;;;6.93;3.90;;;15.10;99.90;;;;;;4978980;28;20484;-62
2023/08/02 02:33:37;;;;;;;7.10;4.40;;;15.10;99.90;;;;;;4978855;28;20754;-62
2023/08/02 02:36:06;;;;;;;6.37;3.90;;;15.20;56.40;;;;;;4965137;28;20464;-62
2023/08/02 02:38:33;;;;;;;11.03;4.03;;;15.20;7.80;;;;;;4959740;28;20474;-61
2023/08/02 02:41:00;;;;;;;8.77;3.83;;;15.20;1.00;;;;;;4959740;28;20462;-62
2023/08/02 02:43:27;;;;;;;4.70;3.50;;;15.20;1.00;;;;;;4959611;28;20779;-61
2023/08/02 02:45:54;;;;;;;7.27;4.17;;;15.20;1.00;;;;;;4959281;28;20534;-61
2023/08/02 02:48:23;;;;;;;6.13;3.13;;;15.20;1.00;;;;;;4959027;28;20469;-61
2023/08/02 02:50:50;;;;;;;5.30;3.40;;;15.20;1.00;;;;;;4959253;28;20869;-61
2023/08/02 02:53:20;;;;;;;8.00;3.73;;;15.20;1.00;;;;;;4959304;28;20455;-61
2023/08/02 02:55:47;;;;;;;5.07;3.33;;;15.20;1.00;;;;;;4958714;28;20474;-62
2023/08/02 02:58:14;;;;;;;7.23;3.67;;;15.20;1.00;;;;;;4958584;28;20463;-61
2023/08/02 03:00:41;;;;;;;7.10;3.60;;;15.30;99.90;;;;;;4959037;28;20463;-61
2023/08/02 03:03:09;;;;;;;7.57;3.80;;;15.20;99.90;;;;;;4958910;28;20491;-61
2023/08/02 03:05:38;;;;;;;7.50;4.13;;;15.20;99.90;;;;;;4958725;28;20549;-62
2023/08/02 03:08:05;;;;;;;4.20;3.10;;;15.20;99.90;;;;;;4962505;28;20832;-61
2023/08/02 03:10:33;;;;;;;6.40;3.27;;;15.20;99.90;;;;;;4967218;28;20461;-62
2023/08/02 03:13:00;;;;;;;4.40;3.63;;;15.20;99.90;;;;;;4969299;28;20850;-61
2023/08/02 03:15:27;;;;;;;8.07;3.63;;;15.30;99.90;;;;;;4977923;28;20903;-61
2023/08/02 03:17:54;;;;;;;7.43;3.47;;;15.20;1.00;;;;;;4977920;28;20489;-61
2023/08/02 03:20:21;;;;;;;8.00;3.60;;;15.30;1.00;;;;;;4978133;28;20462;-62
2023/08/02 03:22:50;;;;;;;9.80;4.10;;;15.30;1.00;;;;;;4978068;28;20600;-61
2023/08/02 03:25:17;;;;;;;5.03;3.90;;;15.30;99.90;;;;;;4978240;28;20500;-62
2023/08/02 03:27:44;;;;;;;5.07;3.33;;;15.30;99.90;;;;;;4977726;28;20472;-62
2023/08/02 03:30:11;;;;;;;8.90;3.63;;;15.30;99.90;;;;;;4980273;28;20462;-62
2023/08/02 03:32:39;;;;;;;7.83;3.60;;;15.30;99.90;;;;;;4980090;28;20466;-62
2023/08/02 03:35:07;;;;;;;5.30;3.50;;;15.30;99.90;;;;;;4975000;28;20881;-61
2023/08/02 03:37:34;;;;;;;5.50;3.00;;;15.40;99.90;;;;;;4961931;28;20724;-62
2023/08/02 03:40:03;;;;;;;6.10;3.80;;;15.30;99.90;;;;;;4962266;29;20459;-62
2023/08/02 03:42:30;;;;;;;7.80;3.90;;;15.30;99.90;;;;;;4962216;29;20466;-62
2023/08/02 03:44:57;;;;;;;6.60;4.30;;;15.40;99.90;;;;;;4962443;29;20788;-61
2023/08/02 03:47:24;;;;;;;4.90;3.83;;;15.40;1.00;;;;;;4962113;28;20462;-61
2023/08/02 03:49:51;;;;;;;5.60;3.30;;;15.40;1.00;;;;;;4962285;29;20462;-61
2023/08/02 03:52:18;;;;;;;7.80;3.90;;;15.40;1.00;;;;;;4962052;29;20462;-62
2023/08/02 03:54:45;;;;;;;4.47;3.30;;;15.40;1.00;;;;;;4962094;29;20429;-61
2023/08/02 03:57:14;;;;;;;5.63;4.03;;;15.40;1.00;;;;;;4962522;29;20452;-62
2023/08/02 03:59:41;;;;;;;5.37;4.00;;;15.40;1.00;;;;;;4961775;29;20881;-61
2023/08/02 04:02:08;;;;;;;7.70;3.83;;;15.40;1.00;;;;;;4961610;29;20466;-61
2023/08/02 04:04:35;;;;;;;6.60;3.50;;;15.40;1.00;;;;;;4961795;28;20498;-61
2023/08/02 04:07:03;;;;;;;7.20;3.90;;;15.40;1.00;;;;;;4962038;28;20898;-62
2023/08/02 04:09:30;;;;;;;5.87;4.00;;;15.40;99.90;;;;;;4961885;29;20565;-61
2023/08/02 04:11:57;;;;;;;5.47;3.93;;;15.40;99.90;;;;;;4961704;29;20469;-61
2023/08/02 04:14:25;;;;;;;4.20;3.20;;;15.40;1.00;;;;;;4961776;29;20490;-61
2023/08/02 04:16:52;;;;;;;6.53;3.13;;;15.40;99.90;;;;;;4961700;29;20462;-62
2023/08/02 04:19:20;;;;;;;7.83;6.20;;;15.50;1.00;;;;;;4961602;29;20913;-61
2023/08/02 04:21:48;;;;;;;4.53;2.87;;;15.50;99.90;;;;;;4961782;29;20485;-62
2023/08/02 04:24:15;;;;;;;4.83;3.50;;;15.50;99.90;;;;;;4961285;29;20499;-61
2023/08/02 04:26:42;;;;;;;6.20;3.40;;;15.50;99.90;;;;;;4961485;28;20469;-62
2023/08/02 04:29:10;;;;;;;7.30;3.00;;;15.40;1.00;;;;;;4961662;28;20463;-61
2023/08/02 04:31:38;;;;;;;6.60;3.80;;;15.40;1.00;;;;;;4960876;29;20459;-62
2023/08/02 04:34:06;;;;;;;6.53;3.60;;;15.50;1.00;;;;;;4961175;29;20459;-61
2023/08/02 04:36:33;;;;;;;6.77;3.30;;;15.40;1.00;;;;;;4961052;29;20777;-61
2023/08/02 04:39:02;;;;;;;5.53;3.37;;;15.50;1.00;;;;;;4960758;28;20437;-61
2023/08/02 04:41:29;;;;;;;5.37;3.60;;;15.50;1.00;;;;;;4961628;29;20467;-62
2023/08/02 04:43:56;;;;;;;9.07;4.00;;;15.50;1.00;;;;;;4961212;29;20501;-62
2023/08/02 04:46:27;;;;;;;5.20;2.70;;;15.50;1.00;;;;;;4963660;28;20752;-60
2023/08/02 04:48:55;;;;;;;5.60;3.23;;;15.50;1.00;;;;;;4961949;28;20451;-61
2023/08/02 04:51:23;;;;;;;4.60;3.03;;;15.50;1.00;;;;;;4969875;28;20450;-62
2023/08/02 04:53:50;;;;;;;4.43;3.23;;;15.50;1.00;;;;;;4964308;28;20455;-62
2023/08/02 04:56:17;;;;;;;4.90;3.37;;;15.50;1.00;;;;;;4970029;28;20939;-62
2023/08/02 04:58:45;;;;;;;5.10;3.40;;;15.50;1.00;;;;;;4961001;29;20971;-62
2023/08/02 05:01:12;;;;;;;5.40;3.80;;;15.50;1.00;;;;;;4962035;28;20463;-62
2023/08/02 05:03:39;;;;;;;4.30;3.23;;;15.40;1.00;;;;;;4979794;28;20497;-62
2023/08/02 05:06:08;;;;;;;5.10;3.63;;;15.50;43.50;;;;;;4979901;28;20458;-62
2023/08/02 05:08:37;;;;;;;7.90;3.93;;;15.50;1.00;;;;;;4979996;28;20462;-61
2023/08/02 05:11:05;;;;;;;5.17;3.30;;;15.40;1.00;;;;;;4980585;28;20462;-63
2023/08/02 05:13:33;;;;;;;5.30;3.70;;;15.40;1.00;;;;;;4980195;28;20500;-62
2023/08/02 05:16:00;;;;;;;7.00;4.10;;;15.50;1.00;;;;;;4979939;28;20556;-62
2023/08/02 05:18:27;;;;;;;5.30;3.63;;;15.50;52.80;;;;;;4979883;28;20482;-61
2023/08/02 05:20:54;;;;;;;7.20;3.93;;;15.50;1.00;;;;;;4979909;28;20552;-63
2023/08/02 05:23:23;;;;;;;5.63;3.60;;;15.60;1.00;;;;;;4979845;28;20462;-61
2023/08/02 05:25:50;;;;;;;5.70;3.63;;;15.60;1.00;;;;;;4979441;28;20540;-62
2023/08/02 05:28:17;;;;;;;5.13;4.27;;;15.60;1.00;;;;;;4979708;28;20469;-62
2023/08/02 05:30:45;;;;;;;5.10;4.07;;;15.60;1.00;;;;;;4979705;28;20831;-62
2023/08/02 05:33:12;;;;;;;4.60;3.70;;;15.60;1.00;;;;;;4979639;28;20501;-61
2023/08/02 05:35:39;;;;;;;5.57;4.03;;;15.70;1.00;;;;;;4968757;28;20458;-61
2023/08/02 05:38:06;;;;;;;7.57;3.87;;;15.70;1.00;;;;;;4959527;29;20466;-63
2023/08/02 05:40:35;;;;;;;5.40;4.10;;;15.60;1.00;;;;;;4960410;29;20780;-60
2023/08/02 05:43:03;;;;;;;7.00;4.57;;;15.70;1.00;;;;;;4959434;29;20474;-61
2023/08/02 05:45:30;;;;;;;5.23;4.00;;;15.70;5.20;;;;;;4959240;28;20502;-60
2023/08/02 05:47:58;;;;;;;6.40;4.43;;;15.70;55.30;;;;;;4958666;28;20561;-60
2023/08/02 05:50:25;;;;;;;4.90;3.80;;;15.80;99.90;;;;;;4959114;29;20486;-60
2023/08/02 05:52:52;;;;;;;6.87;4.57;;;15.80;1.00;;;;;;4958777;28;20873;-60
2023/08/02 05:55:19;;;;;;;6.53;4.07;;;15.90;92.30;;;;;;4959340;28;20458;-59
2023/08/02 05:57:49;;;;;;;6.37;3.67;;;15.90;1.00;;;;;;4959271;29;20474;-60
2023/08/02 06:00:16;;;;;;;6.43;4.27;;;15.90;99.90;;;;;;4959959;29;20471;-59
2023/08/02 06:02:44;;;;;;;7.10;4.50;;;15.90;99.90;;;;;;4959687;28;20866;-60
2023/08/02 06:05:11;;;;;;;7.23;4.50;;;15.90;99.90;;;;;;4965804;28;20487;-60
2023/08/02 06:07:38;;;;;;;6.87;4.53;;;15.90;1.00;;;;;;4958855;29;20560;-60
2023/08/02 06:10:06;;;;;;;6.20;4.83;;;15.80;60.90;;;;;;4959251;29;20601;-58
2023/08/02 06:12:33;;;;;;;6.63;4.70;;;15.80;1.00;;;;;;4959756;28;20471;-51
2023/08/02 06:15:01;;;;;;;5.43;4.47;;;15.70;99.90;;;;;;4959433;28;20459;-52
2023/08/02 06:17:28;;;;;;;7.83;4.97;;;15.70;1.00;;;;;;4959558;28;20502;-53
2023/08/02 06:19:56;;;;;;;5.80;4.63;;;15.70;24.40;;;;;;4958840;28;20463;-52
2023/08/02 06:22:23;;;;;;;5.60;4.93;;;15.80;1.00;;;;;;4959422;29;20486;-53
2023/08/02 06:24:50;;;;;;;5.77;4.73;;;15.80;19.30;;;;;;4959306;28;20565;-55
2023/08/02 06:27:17;;;;;;;9.10;5.60;;;15.80;1.00;;;;;;4959456;29;20463;-55
2023/08/02 06:29:44;;;;;;;7.20;5.23;;;15.90;1.00;;;;;;4958665;29;20437;-55
2023/08/02 06:32:13;;;;;;;7.57;4.77;;;15.90;99.90;;;;;;4958918;29;20473;-55
2023/08/02 06:34:40;;;;;;;5.70;4.73;;;15.90;1.00;;;;;;4958870;28;20884;-58
2023/08/02 06:37:07;;;;;;;6.87;5.50;;;16.00;99.90;;;;;;4958122;29;20979;-55
2023/08/02 06:39:34;;;;;;;7.63;5.00;;;16.00;99.90;;;;;;4957464;29;20462;-56
2023/08/02 06:42:01;;;;;;;7.00;4.60;;;16.00;99.90;;;;;;4958945;29;20951;-55
2023/08/02 06:44:29;;;;;;;6.77;4.50;;;16.10;99.90;;;;;;4958854;29;20940;-56
2023/08/02 06:46:56;;;;;;;7.37;5.20;;;16.20;99.90;;;;;;4958964;28;20733;-56
2023/08/02 06:49:24;;;;;;;4.93;4.43;;;16.20;17.20;;;;;;4958979;29;20531;-56
2023/08/02 06:51:51;;;;;;;8.03;4.67;;;16.30;99.90;;;;;;4958053;29;20895;-56
2023/08/02 06:54:18;;;;;;;6.67;4.90;;;16.30;1.00;;;;;;4957186;29;20964;-56
2023/08/02 06:56:46;;;;;;;4.67;3.90;;;16.30;1.00;;;;;;4957081;29;20546;-52
2023/08/02 06:59:13;;;;;;;5.00;3.83;;;16.40;1.00;;;;;;4957451;29;20558;-53
2023/08/02 07:01:40;;;;;;;6.23;4.30;;;16.40;99.90;;;;;;4957079;28;20922;-52
2023/08/02 07:04:07;;;;;;;4.40;3.50;;;16.40;1.00;;;;;;4959827;28;20489;-50
2023/08/02 07:06:36;;;;;;;7.77;4.23;;;16.40;1.00;;;;;;4961478;29;20951;-48
2023/08/02 07:09:03;;;;;;;4.63;2.90;;;16.40;92.30;;;;;;4962810;29;20759;-56
2023/08/02 07:11:30;;;;;;;3.57;3.20;;;16.50;50.00;;;;;;4962985;29;20463;-54
2023/08/02 07:13:58;;;;;;;3.70;3.20;;;16.40;1.00;;;;;;4962590;28;20527;-52
2023/08/02 07:16:25;;;;;;;4.70;3.70;;;16.40;1.00;;;;;;4962939;28;20545;-54
2023/08/02 07:18:52;;;;;;;4.13;3.40;;;16.50;88.50;;;;;;4962361;28;20495;-56
2023/08/02 07:21:19;;;;;;;4.10;3.70;;;16.50;99.90;;;;;;4969428;28;20454;-58
2023/08/02 07:23:48;;;;;;;3.57;3.03;;;16.50;99.90;;;;;;4969565;28;20458;-49
2023/08/02 07:26:15;;;;;;;3.87;2.80;;;16.50;99.90;;;;;;4969872;28;20455;-55
2023/08/02 07:28:42;;;;;;;3.83;2.87;;;16.40;99.90;;;;;;4970932;28;20437;-56
2023/08/02 07:31:10;;;;;;;3.50;2.90;;;16.30;99.90;;;;;;4962563;29;20466;-63
2023/08/02 07:33:37;;;;;;;4.10;2.30;;;16.30;99.90;;;;;;4961895;29;20938;-58
2023/08/02 07:36:05;;;;;;;3.50;2.80;;;16.20;99.90;;;;;;4964594;28;20450;-54
2023/08/02 07:38:33;;;;;;;3.10;2.60;;;16.20;99.90;;;;;;4967487;28;20565;-57
2023/08/02 07:41:04;;;;;;;3.10;2.80;;;16.20;99.90;;;;;;4962084;29;20549;-57
2023/08/02 07:43:31;;;;;;;2.83;2.17;;;16.30;99.90;;;;;;4962304;29;20952;-58
2023/08/02 07:45:58;;;;;;;3.43;2.70;;;16.30;99.90;;;;;;4961949;28;20553;-58
2023/08/02 07:48:25;;;;;;;4.80;2.80;;;16.40;99.90;;;;;;4962045;29;20833;-54
2023/08/02 07:50:53;;;;;;;4.10;2.20;;;16.40;99.90;;;;;;4961349;28;20914;-56
2023/08/02 07:53:20;;;;;;;4.37;2.60;;;16.50;99.90;;;;;;4962009;28;20437;-57
2023/08/02 07:55:48;;;;;;;4.10;3.27;;;16.50;99.90;;;;;;4961752;28;20553;-57
2023/08/02 07:58:18;;;;;;;4.50;3.50;;;16.50;99.90;;;;;;4961600;29;20467;-62
2023/08/02 08:00:45;;;;;;;5.43;3.20;;;16.50;1.00;;;;;;4961835;28;20919;-53
2023/08/02 08:03:12;;;;;;;3.47;3.10;;;16.60;99.90;;;;;;4961228;28;20529;-55
2023/08/02 08:05:40;;;;;;;5.03;3.30;;;16.70;99.90;;;;;;4962060;28;20505;-58
2023/08/02 08:08:07;;;;;;;3.40;3.10;;;16.80;99.90;;;;;;4977339;28;20895;-56
2023/08/02 08:10:34;;;;;;;3.50;3.17;;;17.00;33.00;;;;;;4980672;28;20461;-59
2023/08/02 08:13:02;;;;;;;4.60;3.37;;;17.20;99.90;;;;;;4977960;28;20461;-59
2023/08/02 08:15:31;;;;;;;4.20;3.80;;;17.30;1.00;;;;;;4960731;28;20514;-62
2023/08/02 08:17:58;;;;;;;5.10;3.30;;;17.30;1.00;;;;;;4960790;28;20943;-59
2023/08/02 08:20:25;;;;;;;3.97;2.90;;;17.50;99.90;;;;;;4961208;28;20490;-58
2023/08/02 08:22:54;;;;;;;4.13;3.43;;;17.50;1.00;;;;;;4961229;28;20466;-59
2023/08/02 08:25:21;;;;;;;5.50;3.97;;;17.60;99.90;;;;;;4960351;28;20564;-57
2023/08/02 08:27:48;;;;;;;3.33;3.03;;;17.70;1.00;;;;;;4961297;28;20820;-60
2023/08/02 08:30:16;;;;;;;3.30;3.00;;;17.80;83.90;;;;;;4961102;28;20881;-59
2023/08/02 08:32:44;;;;;;;4.57;3.50;;;17.80;1.00;;;;;;4967399;28;20884;-62
2023/08/02 08:35:12;;;;;;;3.50;3.00;;;17.80;99.90;;;;;;4968917;28;20836;-59
2023/08/02 08:37:39;;;;;;;4.37;3.63;;;17.70;99.90;;;;;;4966931;28;20473;-58
2023/08/02 08:40:08;;;;;;;4.03;3.63;;;17.60;99.90;;;;;;4960495;28;20517;-58
2023/08/02 08:42:35;;;;;;;4.30;3.80;;;17.50;1.00;;;;;;4961273;28;20494;-58
2023/08/02 08:45:03;;;;;;;4.60;3.10;;;17.30;1.00;;;;;;4961088;29;20602;-59
2023/08/02 08:47:30;;;;;;;6.13;3.50;;;17.30;50.40;;;;;;4960845;28;20882;-58
2023/08/02 08:50:04;;;;;;;4.33;3.50;;;17.30;99.90;;;;;;4960947;28;20541;-59
2023/08/02 08:52:35;;;;;;;3.47;2.97;;;17.20;99.90;;;;;;4960847;28;20875;-58
2023/08/02 08:55:04;;;;;;;4.37;3.17;;;17.20;1.00;;;;;;4961201;28;20513;-58
2023/08/02 08:57:32;;;;;;;5.83;3.70;;;17.20;1.00;;;;;;4961014;28;20474;-59
2023/08/02 09:00:00;;;;;;;4.97;3.70;;;17.20;99.90;;;;;;4960593;28;20470;-58
2023/08/02 09:02:29;;;;;;;4.07;3.40;;;17.30;50.00;;;;;;4960664;29;20502;-59
2023/08/02 09:04:58;;;;;;;5.73;3.60;;;17.40;99.90;;;;;;4960547;28;20498;-60
2023/08/02 09:07:26;;;;;;;5.53;3.57;;;17.50;1.00;;;;;;4960825;29;20466;-61
2023/08/02 09:09:53;;;;;;;4.07;3.00;;;17.50;99.90;;;;;;4960266;29;20459;-59
2023/08/02 09:12:20;;;;;;;3.60;2.27;;;17.60;99.90;;;;;;4960815;29;20471;-60
2023/08/02 09:15:00;;;;;;;3.67;2.40;;;17.80;1.00;;;;;;4960439;28;20459;-59
2023/08/02 09:17:28;;;;;;;5.17;2.40;;;18.00;99.90;;;;;;4960752;29;20830;-58
2023/08/02 09:20:11;;;;;;;3.97;2.60;;;18.00;26.30;;;;;;4960363;28;20490;-67
2023/08/02 09:22:38;;;;;;;2.83;2.50;;;18.00;1.00;;;;;;4959733;29;20776;-60
2023/08/02 09:25:09;;;;;;;4.17;2.83;;;18.00;1.00;;;;;;4959970;28;20495;-61
2023/08/02 09:27:37;;;;;;;2.90;2.20;;;18.10;99.90;;;;;;4959317;28;20465;-59
2023/08/02 09:30:05;;;;;;;2.93;2.40;;;18.20;99.90;;;;;;4960169;29;20562;-58
2023/08/02 09:32:32;;;;;;;3.60;2.03;;;18.20;99.90;;;;;;4964993;28;20771;-61
2023/08/02 09:35:00;;;;;;;2.50;2.30;;;18.40;1.00;;;;;;4962224;28;20461;-60
2023/08/02 09:37:32;;;;;;;2.63;2.43;;;18.70;99.90;;;;;;4960234;29;20469;-62
2023/08/02 09:40:00;;;;;;;3.23;1.80;;;18.70;1.00;;;;;;4960601;29;20434;-60
2023/08/02 09:42:29;;;;;;;2.40;1.80;;;18.80;1.00;;;;;;4960074;28;20459;-62
2023/08/02 09:44:59;;;;;;;2.73;2.10;;;19.10;1.00;;;;;;4960035;28;20903;-62
2023/08/02 09:47:27;;;;;;;2.37;1.57;;;19.70;1.00;;;;;;4960778;28;20468;-62
2023/08/02 09:50:05;;;;;;;3.07;2.03;;;20.20;67.70;;;;;;4969131;28;20463;-63
2023/08/02 09:52:35;;;;;;;2.70;2.17;;;20.10;1.00;;;;;;4968157;28;20470;-63
2023/08/02 09:55:03;;;;;;;2.40;1.90;;;20.00;1.00;;;;;;4978642;28;20464;-62
2023/08/02 09:57:32;;;;;;;3.17;1.90;;;19.70;99.90;;;;;;4959910;28;20498;-61
2023/08/02 10:00:04;;;;;;;2.30;1.80;;;19.80;99.90;;;;;;4959753;29;20541;-62
2023/08/02 10:02:32;;;;;;;3.30;1.93;;;20.10;99.90;;;;;;4957068;29;20491;-62
2023/08/02 10:05:00;;;;;;;2.93;1.63;;;20.60;5.90;;;;;;4956088;28;20490;-62
2023/08/02 10:07:36;;;;;;;2.67;1.70;;;21.00;1.00;;;;;;4956369;28;20463;-62
2023/08/02 10:10:06;;;;;;;2.10;1.60;;;20.80;1.00;;;;;;4956322;28;20458;-62
2023/08/02 10:12:36;;;;;;;2.30;1.80;;;20.70;1.00;;;;;;4956736;29;20466;-62
2023/08/02 10:15:04;;;;;;;2.70;1.73;;;20.20;1.00;;;;;;4956417;28;20467;-60
2023/08/02 10:17:32;;;;;;;2.63;1.70;;;20.10;1.00;;;;;;4957611;28;20582;-62
2023/08/02 10:20:00;;;;;;;2.40;1.93;;;19.70;77.10;;;;;;4958049;28;20494;-63
2023/08/02 10:22:29;;;;;;;2.93;1.73;;;19.60;99.90;;;;;;4958608;28;20545;-61
2023/08/02 10:24:59;;;;;;;3.20;2.00;;;19.60;99.90;;;;;;4958896;28;20491;-60
2023/08/02 10:27:27;;;;;;;2.10;1.67;;;19.50;99.90;;;;;;4958574;28;20458;-59
2023/08/02 10:29:55;;;;;;;2.30;1.70;;;19.60;1.00;;;;;;4958677;29;20955;-63
2023/08/02 10:32:23;;;;;;;2.10;1.50;;;19.90;99.90;;;;;;4959290;29;20541;-61
2023/08/02 10:34:52;;;;;;;2.23;2.03;;;19.90;99.90;;;;;;4959147;29;20554;-60
2023/08/02 10:37:21;;;;;;;2.57;2.13;;;19.70;99.90;;;;;;4958783;28;20463;-62
2023/08/02 10:39:57;;;;;;;3.10;1.50;;;19.60;1.00;;;;;;4958759;28;20461;-56
2023/08/02 10:42:29;;;;;;;2.20;1.50;;;19.50;1.00;;;;;;4958834;29;20466;-57
2023/08/02 10:45:17;;;;;;;2.50;1.80;;;19.30;1.00;;;;;;4959600;28;21163;-56
2023/08/02 10:47:45;;;;;;;2.43;1.57;;;19.10;99.90;;;;;;4954919;28;20545;-58
2023/08/02 10:50:44;;;;;;;2.30;1.70;;;19.10;1.00;;;;;;4957921;28;20487;-58
2023/08/02 10:53:11;;;;;;;2.30;1.47;;;19.20;1.00;;;;;;4912471;29;20480;-59
2023/08/02 10:56:03;;;;;;;2.27;1.60;;;19.40;99.90;;;;;;4960600;28;20509;-68
2023/08/02 10:58:49;;;;;;;2.43;1.57;;;19.30;1.00;;;;;;4958655;28;20482;-60
2023/08/02 11:01:17;;;;;;;2.60;1.80;;;19.30;1.00;;;;;;4961377;28;20477;-59
2023/08/02 11:03:45;;;;;;;2.33;1.47;;;19.40;1.00;;;;;;4960154;28;20509;-60
2023/08/02 11:06:27;;;;;;;3.30;1.80;;;19.60;99.90;;;;;;4957054;28;20502;-60
2023/08/02 11:08:55;;;;;;;2.50;1.37;;;20.00;1.00;;;;;;4956908;29;20459;-61
2023/08/02 11:11:36;;;;;;;3.13;1.77;;;20.40;99.90;;;;;;4957247;28;20980;-60
2023/08/02 11:14:04;;;;;;;2.77;1.60;;;20.90;99.90;;;;;;4957587;28;20471;-59
2023/08/02 11:16:32;;;;;;;1.93;1.30;;;21.30;1.00;;;;;;4957507;28;20458;-59
2023/08/02 11:18:59;;;;;;;2.40;1.33;;;21.50;99.90;;;;;;4958088;28;20545;-58
2023/08/02 11:21:27;;;;;;;1.80;1.27;;;21.60;4.60;;;;;;4958216;28;20506;-59
2023/08/02 11:24:01;;;;;;;2.03;1.37;;;21.80;1.00;;;;;;4958107;28;20549;-60
2023/08/02 11:26:29;;;;;;;3.10;1.73;;;22.00;21.40;;;;;;4960096;28;20497;-61
2023/08/02 11:28:57;;;;;;;2.33;1.93;;;22.40;1.00;;;;;;4965864;28;20479;-61
2023/08/02 11:31:25;;;;;;;2.70;2.03;;;22.90;1.00;;;;;;4967334;28;20494;-61
2023/08/02 11:33:53;;;;;;;2.33;1.60;;;23.20;1.00;;;;;;4958194;28;20470;-59
2023/08/02 11:36:21;;;;;;;2.37;1.40;;;23.60;1.00;;;;;;4957998;28;20490;-60
2023/08/02 11:38:49;;;;;;;2.83;1.93;;;23.60;1.00;;;;;;4957981;28;20467;-62
2023/08/02 11:41:20;;;;;;;1.90;1.30;;;23.80;1.00;;;;;;4958721;28;20851;-61
2023/08/02 11:43:48;;;;;;;2.50;1.53;;;23.60;1.00;;;;;;4958025;29;20525;-61
2023/08/02 11:46:21;;;;;;;2.20;1.37;;;23.30;1.00;;;;;;4958489;29;20568;-60
2023/08/02 11:48:48;;;;;;;2.10;1.20;;;23.10;1.00;;;;;;4958775;28;20899;-61
2023/08/02 11:51:17;;;;;;;1.90;1.50;;;22.80;1.00;;;;;;4961613;29;20938;-60
2023/08/02 11:53:52;;;;;;;2.30;1.60;;;22.60;1.00;;;;;;4960685;28;20822;-61
2023/08/02 11:56:21;;;;;;;2.07;1.63;;;22.30;10.00;;;;;;4974950;28;20767;-61
2023/08/02 11:58:50;;;;;;;2.37;1.40;;;22.10;91.10;;;;;;4965858;28;21080;-61
2023/08/02 12:01:20;;;;;;;2.50;1.67;;;21.80;99.90;;;;;;4962205;28;20467;-63
2023/08/02 12:03:54;;;;;;;2.33;1.60;;;22.20;99.90;;;;;;4965869;28;20791;-62
2023/08/02 12:06:22;;;;;;;2.10;1.70;;;22.70;99.90;;;;;;4961952;28;20494;-62
2023/08/02 12:08:57;;;;;;;1.90;1.40;;;23.10;1.00;;;;;;4961841;29;20876;-61
2023/08/02 12:11:25;;;;;;;2.27;1.53;;;23.50;1.00;;;;;;4961817;28;20881;-63
2023/08/02 12:13:53;;;;;;;2.50;1.27;;;23.80;1.00;;;;;;4969912;28;20970;-61
2023/08/02 12:16:22;;;;;;;3.57;1.70;;;24.20;1.00;;;;;;4963805;28;20502;-63
2023/08/02 12:18:57;;;;;;;1.80;1.37;;;24.60;1.00;;;;;;4961614;28;20505;-62
2023/08/02 12:21:25;;;;;;;2.10;1.43;;;24.80;1.00;;;;;;4979599;28;20492;-61
2023/08/02 12:23:53;;;;;;;1.90;1.53;;;24.70;1.00;;;;;;4965813;28;20479;-61
2023/08/02 12:26:34;;;;;;;2.23;1.47;;;24.80;1.00;;;;;;4961551;28;20549;-62
2023/08/02 12:29:03;;;;;;;2.17;1.47;;;25.10;1.00;;;;;;4962555;28;20946;-61
2023/08/02 12:31:41;;;;;;;1.70;1.37;;;24.70;1.00;;;;;;4960613;28;20525;-62
2023/08/02 12:34:09;;;;;;;2.20;1.87;;;23.90;1.00;;;;;;4961499;28;20458;-61
2023/08/02 12:36:38;;;;;;;1.97;1.67;;;23.30;1.00;;;;;;4960640;29;20453;-61
2023/08/02 12:39:05;;;;;;;2.03;1.67;;;23.10;1.00;;;;;;4961411;29;20462;-61
2023/08/02 12:41:32;;;;;;;2.20;1.80;;;22.70;1.00;;;;;;4960997;29;20832;-62
2023/08/02 12:44:00;;;;;;;3.67;1.60;;;22.60;1.00;;;;;;4960962;29;20525;-60
2023/08/02 12:46:27;;;;;;;2.10;1.87;;;22.50;1.00;;;;;;4960685;28;20928;-62
2023/08/02 12:48:56;;;;;;;2.17;1.30;;;22.40;1.00;;;;;;4960292;28;20514;-62
2023/08/02 12:51:24;;;;;;;3.57;1.60;;;22.30;1.00;;;;;;4960936;28;20471;-58
2023/08/02 12:53:51;;;;;;;2.87;1.70;;;21.90;38.00;;;;;;4960833;28;20463;-57
2023/08/02 12:56:19;;;;;;;2.00;1.60;;;21.80;99.90;;;;;;4960621;28;20462;-57
2023/08/02 12:58:46;;;;;;;2.00;1.60;;;21.50;99.90;;;;;;4960388;28;20545;-57